Terminal Aerodrome Forecast
Issued by NWS

Home | Current Version | Previous Version | Text Only | Print | Product List | Glossary On
Versions: 1 2 3 4 5 6 7 8 9 10 11 12 13 14 15 16 17 18 19 20 21 22 23 24
024
FTUS44 KLZK 220112 AAA
TAFLIT
TAF AMD
KLIT 220112Z 2201/2224 17010KT P6SM VCSH SCT030 OVC060
      WS020/19045KT
      TEMPO 2201/2203 BKN030
     FM220300 16012G20KT P6SM VCTS BKN020 OVC040CB
      TEMPO 2203/2206 5SM -TSRA BR BKN010 OVC020CB
     FM220600 15016G25KT P6SM -TSRA BKN025 OVC040CB
      TEMPO 2206/2210 VRB15G35KT 2SM +TSRA BR OVC015CB
     FM221000 22015G25KT P6SM VCSH SCT025 BKN050
     FM221200 22013G19KT P6SM SCT025 SCT250=

USA.gov is the U.S. government's official web portal to all federal, state and local government web resources and services.